Terminal Aerodrome Forecast
Issued by NWS

Home | Current Version | Previous Version | Text Only | Print | Product List | Glossary On
Versions: 1 2 3 4 5 6 7 8 9 10 11 12 13 14 15 16 17 18 19 20
000
FTUS46 KSEW 301700
TAFOLM
TAF
KOLM 301734Z 3018/3118 19006KT P6SM FEW025
     FM302000 24006KT P6SM SCT250
     FM310000 27006KT P6SM SCT250
     FM310400 00000KT P6SM SCT250
     FM311300 00000KT P6SM BKN012
     FM311700 VRB03KT P6SM SCT250=

USA.gov is the U.S. government's official web portal to all federal, state and local government web resources and services.